createdAt,value
2023-03-05T00:01:35.592Z,98132.00
2023-03-05T00:04:04.917Z,98124.00
2023-03-05T00:06:34.827Z,98122.00
2023-03-05T00:09:02.600Z,98127.00
2023-03-05T00:11:31.772Z,98123.00
2023-03-05T00:14:01.115Z,98133.00
2023-03-05T00:16:29.799Z,98133.00
2023-03-05T00:18:58.796Z,98122.00
2023-03-05T00:21:28.766Z,98127.00
2023-03-05T00:23:58.931Z,98116.00
2023-03-05T00:26:27.598Z,98117.00
2023-03-05T00:28:56.839Z,98117.00
2023-03-05T00:31:27.207Z,98119.00
2023-03-05T00:33:58.864Z,98107.00
2023-03-05T00:36:27.281Z,98116.00
2023-03-05T00:38:55.564Z,98114.00
2023-03-05T00:41:24.572Z,98110.00
2023-03-05T00:43:52.267Z,98102.00
2023-03-05T00:46:20.016Z,98108.00
2023-03-05T00:48:47.760Z,98101.00
2023-03-05T00:51:15.763Z,98107.00
2023-03-05T00:53:43.466Z,98101.00
2023-03-05T00:56:11.445Z,98106.00
2023-03-05T00:58:40.602Z,98100.00
2023-03-05T01:01:08.992Z,98104.00
2023-03-05T01:03:36.776Z,98101.00
2023-03-05T01:06:07.825Z,98102.00
2023-03-05T01:08:35.691Z,98094.00
2023-03-05T01:11:03.903Z,98101.00
2023-03-05T01:13:31.651Z,98107.00
2023-03-05T01:16:01.109Z,98090.00
2023-03-05T01:18:28.819Z,98102.00
2023-03-05T01:20:56.604Z,98090.00
2023-03-05T01:23:24.419Z,98085.00
2023-03-05T01:25:55.565Z,98084.00
2023-03-05T01:28:23.328Z,98085.00
2023-03-05T01:30:51.352Z,98081.00
2023-03-05T01:33:20.516Z,98084.00
2023-03-05T01:35:49.263Z,98076.00
2023-03-05T01:38:17.707Z,98069.00
2023-03-05T01:40:45.936Z,98073.00
2023-03-05T01:43:28.297Z,98067.00
2023-03-05T01:46:24.643Z,98078.00
2023-03-05T01:48:57.273Z,98077.00
2023-03-05T01:51:28.878Z,98070.00
2023-03-05T01:53:59.005Z,98068.00
2023-03-05T01:56:28.614Z,98075.00
2023-03-05T01:59:03.393Z,98067.00
2023-03-05T02:01:40.702Z,98066.00
2023-03-05T02:04:12.493Z,98072.00
2023-03-05T02:06:42.107Z,98064.00
2023-03-05T02:09:11.942Z,98063.00
2023-03-05T02:11:40.825Z,98064.00
2023-03-05T02:14:10.194Z,98063.00
2023-03-05T02:16:39.712Z,98054.00
2023-03-05T02:19:11.993Z,98051.00
2023-03-05T02:21:43.240Z,98049.00
2023-03-05T02:24:13.712Z,98049.00
2023-03-05T02:26:43.148Z,98047.00
2023-03-05T02:29:12.988Z,98043.00
2023-03-05T02:31:40.754Z,98040.00
2023-03-05T02:34:09.262Z,98041.00
2023-03-05T02:36:36.900Z,98034.00
2023-03-05T02:39:05.949Z,98036.00
2023-03-05T02:41:33.618Z,98027.00
2023-03-05T02:44:01.237Z,98027.00
2023-03-05T02:46:28.882Z,98021.00
2023-03-05T02:48:56.556Z,98016.00
2023-03-05T02:51:24.214Z,98016.00
2023-03-05T02:53:51.951Z,98014.00
2023-03-05T02:56:21.137Z,98011.00
2023-03-05T02:58:48.753Z,97998.00
2023-03-05T03:01:16.426Z,97992.00
2023-03-05T03:03:44.082Z,97996.00
2023-03-05T03:06:11.714Z,98004.00
2023-03-05T03:08:39.444Z,98000.00
2023-03-05T03:11:08.926Z,98010.00
2023-03-05T03:13:37.900Z,98006.00
2023-03-05T03:16:08.328Z,98004.00
2023-03-05T03:18:36.679Z,97994.00
2023-03-05T03:21:05.398Z,97997.00
2023-03-05T03:23:33.210Z,97999.00
2023-03-05T03:26:00.890Z,97989.00
2023-03-05T03:28:28.488Z,97979.00
2023-03-05T03:30:57.505Z,97988.00
2023-03-05T03:33:25.212Z,97977.00
2023-03-05T03:35:52.931Z,97986.00
2023-03-05T03:38:20.553Z,97988.00
2023-03-05T03:40:48.291Z,97984.00
2023-03-05T03:43:15.926Z,97981.00
2023-03-05T03:45:44.346Z,97980.00
2023-03-05T03:48:13.337Z,97983.00
2023-03-05T03:50:41.812Z,97975.00
2023-03-05T03:53:14.076Z,97975.00
2023-03-05T03:55:43.056Z,97974.00
2023-03-05T03:58:10.710Z,97974.00
2023-03-05T04:00:38.410Z,97971.00
2023-03-05T04:03:06.027Z,97969.00
2023-03-05T04:05:34.974Z,97967.00
2023-03-05T04:08:03.486Z,97961.00
2023-03-05T04:10:31.161Z,97963.00
2023-03-05T04:12:58.790Z,97965.00
2023-03-05T04:15:26.446Z,97958.00
2023-03-05T04:17:54.132Z,97959.00
2023-03-05T04:20:21.826Z,97956.00
2023-03-05T04:22:50.960Z,97953.00
2023-03-05T04:25:18.698Z,97950.00
2023-03-05T04:27:46.389Z,97942.00
2023-03-05T04:30:15.658Z,97941.00
2023-03-05T04:32:43.629Z,97942.00
2023-03-05T04:35:11.621Z,97942.00
2023-03-05T04:37:39.408Z,97942.00
2023-03-05T04:40:10.380Z,97940.00
2023-03-05T04:42:38.157Z,97950.00
2023-03-05T04:45:07.734Z,97942.00
2023-03-05T04:47:35.912Z,97943.00
2023-03-05T04:50:04.939Z,97936.00
2023-03-05T04:52:32.942Z,97938.00
2023-03-05T04:55:00.759Z,97936.00
2023-03-05T04:57:29.810Z,97935.00
2023-03-05T04:59:57.675Z,97933.00
2023-03-05T05:02:25.527Z,97931.00
2023-03-05T05:04:53.836Z,97927.00
2023-03-05T05:07:21.710Z,97928.00
2023-03-05T05:09:49.800Z,97924.00
2023-03-05T05:12:17.748Z,97924.00
2023-03-05T05:14:46.893Z,97922.00
2023-03-05T05:17:14.564Z,97928.00
2023-03-05T05:19:42.477Z,97917.00
2023-03-05T05:22:10.222Z,97915.00
2023-03-05T05:24:38.026Z,97917.00
2023-03-05T05:27:05.779Z,97919.00
2023-03-05T05:29:33.518Z,97922.00
2023-03-05T05:32:02.687Z,97922.00
2023-03-05T05:34:30.390Z,97924.00
2023-03-05T05:36:58.208Z,97923.00
2023-03-05T05:39:25.919Z,97920.00
2023-03-05T05:41:54.765Z,97926.00
2023-03-05T05:44:22.507Z,97919.00
2023-03-05T05:46:50.220Z,97921.00
2023-03-05T05:49:19.457Z,97922.00
2023-03-05T05:51:47.176Z,97921.00
2023-03-05T05:54:16.083Z,97926.00
2023-03-05T05:56:43.911Z,97922.00
2023-03-05T05:59:12.100Z,97928.00
2023-03-05T06:01:39.889Z,97926.00
2023-03-05T06:04:07.605Z,97925.00
2023-03-05T06:06:36.777Z,97933.00
2023-03-05T06:09:05.032Z,97930.00
2023-03-05T06:11:34.071Z,97931.00
2023-03-05T06:14:03.107Z,97930.00
2023-03-05T06:16:31.228Z,97923.00
2023-03-05T06:18:59.135Z,97927.00
2023-03-05T06:21:26.872Z,97932.00
2023-03-05T06:23:55.920Z,97928.00
2023-03-05T06:26:23.778Z,97925.00
2023-03-05T06:28:53.273Z,97932.00
2023-03-05T06:31:22.930Z,97927.00
2023-03-05T06:33:51.243Z,97924.00
2023-03-05T06:36:20.801Z,97927.00
2023-03-05T06:38:49.223Z,97928.00
2023-03-05T06:41:21.108Z,97924.00
2023-03-05T06:43:49.526Z,97928.00
2023-03-05T06:46:19.474Z,97924.00
2023-03-05T06:48:47.972Z,97925.00
2023-03-05T06:51:17.090Z,97926.00
2023-03-05T06:53:44.987Z,97921.00
2023-03-05T06:56:14.033Z,97921.00
2023-03-05T06:58:43.778Z,97912.00
2023-03-05T07:01:11.492Z,97921.00
2023-03-05T07:03:39.606Z,97927.00
2023-03-05T07:06:09.406Z,97920.00
2023-03-05T07:08:38.016Z,97927.00
2023-03-05T07:11:11.716Z,97925.00
2023-03-05T07:13:39.496Z,97921.00
2023-03-05T07:16:10.828Z,97921.00
2023-03-05T07:18:38.544Z,97922.00
2023-03-05T07:21:08.048Z,97917.00
2023-03-05T07:23:36.000Z,97921.00
2023-03-05T07:26:04.393Z,97914.00
2023-03-05T07:28:32.877Z,97913.00
2023-03-05T07:31:02.685Z,97916.00
2023-03-05T07:33:32.503Z,97911.00
2023-03-05T07:36:01.343Z,97909.00
2023-03-05T07:38:29.084Z,97909.00
2023-03-05T07:40:56.694Z,97913.00
2023-03-05T07:43:24.319Z,97908.00
2023-03-05T07:45:52.004Z,97903.00
2023-03-05T07:48:21.813Z,97907.00
2023-03-05T07:50:50.996Z,97906.00
2023-03-05T07:53:18.660Z,97914.00
2023-03-05T07:55:47.361Z,97905.00
2023-03-05T07:58:15.458Z,97911.00
2023-03-05T08:00:43.264Z,97908.00
2023-03-05T08:03:10.952Z,97901.00
2023-03-05T08:05:40.670Z,97905.00
2023-03-05T08:08:10.341Z,97897.00
2023-03-05T08:10:39.022Z,97900.00
2023-03-05T08:13:07.356Z,97897.00
2023-03-05T08:15:35.116Z,97896.00
2023-03-05T08:18:02.789Z,97904.00
2023-03-05T08:20:30.462Z,97893.00
2023-03-05T08:22:58.082Z,97890.00
2023-03-05T08:25:27.107Z,97898.00
2023-03-05T08:27:55.046Z,97898.00
2023-03-05T08:30:27.059Z,97892.00
2023-03-05T08:32:55.283Z,97892.00
2023-03-05T08:35:23.428Z,97888.00
2023-03-05T08:37:51.777Z,97895.00
2023-03-05T08:40:20.252Z,97889.00
2023-03-05T08:42:49.255Z,97888.00
2023-03-05T08:45:17.091Z,97885.00
2023-03-05T08:47:44.719Z,97885.00
2023-03-05T08:50:13.521Z,97883.00
2023-03-05T08:52:41.144Z,97888.00
2023-03-05T08:55:09.715Z,97895.00
2023-03-05T08:57:37.448Z,97892.00
2023-03-05T09:00:10.197Z,97888.00
2023-03-05T09:02:38.080Z,97880.00
2023-03-05T09:05:06.364Z,97884.00
2023-03-05T09:07:34.096Z,97886.00
2023-03-05T09:10:01.947Z,97878.00
2023-03-05T09:12:29.582Z,97880.00
2023-03-05T09:14:57.714Z,97875.00
2023-03-05T09:17:26.755Z,97871.00
2023-03-05T09:19:54.428Z,97873.00
2023-03-05T09:22:22.101Z,97871.00
2023-03-05T09:24:49.755Z,97875.00
2023-03-05T09:27:17.382Z,97870.00
2023-03-05T09:29:45.868Z,97868.00
2023-03-05T09:32:13.659Z,97869.00
2023-03-05T09:34:42.744Z,97867.00
2023-03-05T09:37:10.447Z,97864.00
2023-03-05T09:39:38.176Z,97865.00
2023-03-05T09:42:27.147Z,97860.00
2023-03-05T09:45:04.012Z,97865.00
2023-03-05T09:47:46.201Z,97857.00
2023-03-05T09:50:39.372Z,97859.00
2023-03-05T09:53:18.352Z,97855.00
2023-03-05T09:55:48.417Z,97866.00
2023-03-05T09:58:20.504Z,97861.00
2023-03-05T10:00:51.187Z,97859.00
2023-03-05T10:03:26.192Z,97860.00
2023-03-05T10:06:04.971Z,97857.00
2023-03-05T10:08:42.983Z,97862.00
2023-03-05T10:11:31.618Z,97866.00
2023-03-05T10:13:59.426Z,97858.00
2023-03-05T10:17:00.312Z,97858.00
2023-03-05T10:19:49.040Z,97858.00
2023-03-05T10:22:20.986Z,97858.00
2023-03-05T10:25:01.419Z,97858.00
2023-03-05T10:27:40.861Z,97856.00
2023-03-05T10:30:24.665Z,97845.00
2023-03-05T10:33:02.073Z,97840.00
2023-03-05T10:35:57.946Z,97841.00
2023-03-05T10:38:54.756Z,97835.00
2023-03-05T10:41:29.582Z,97838.00
2023-03-05T10:44:05.359Z,97827.00
2023-03-05T10:46:37.963Z,97832.00
2023-03-05T10:49:15.880Z,97829.00
2023-03-05T10:51:50.758Z,97831.00
2023-03-05T10:54:26.441Z,97829.00
2023-03-05T10:57:04.564Z,97819.00
2023-03-05T10:59:33.505Z,97817.00
2023-03-05T11:02:08.651Z,97805.00
2023-03-05T11:04:38.223Z,97807.00
2023-03-05T11:07:35.577Z,97807.00
2023-03-05T11:10:08.226Z,97805.00
2023-03-05T11:12:37.240Z,97795.00
2023-03-05T11:15:22.667Z,97798.00
2023-03-05T11:18:06.615Z,97797.00
2023-03-05T11:20:36.246Z,97791.00
2023-03-05T11:23:06.610Z,97787.00
2023-03-05T11:25:36.970Z,97779.00
2023-03-05T11:28:05.228Z,97781.00
2023-03-05T11:30:35.462Z,97772.00
2023-03-05T11:33:10.582Z,97781.00
2023-03-05T11:35:40.984Z,97778.00
2023-03-05T11:38:24.433Z,97780.00
2023-03-05T11:40:54.694Z,97762.00
2023-03-05T11:43:24.374Z,97769.00
2023-03-05T11:45:54.722Z,97761.00
2023-03-05T11:48:27.662Z,97757.00
2023-03-05T11:50:58.022Z,97757.00
2023-03-05T11:53:29.134Z,97755.00
2023-03-05T11:56:04.260Z,97752.00
2023-03-05T11:58:36.467Z,97749.00
2023-03-05T12:01:07.499Z,97747.00
2023-03-05T12:03:39.286Z,97747.00
2023-03-05T12:06:14.991Z,97738.00
2023-03-05T12:08:47.463Z,97736.00
2023-03-05T12:11:21.371Z,97737.00
2023-03-05T12:13:53.742Z,97736.00
2023-03-05T12:16:29.037Z,97732.00
2023-03-05T12:19:12.272Z,97723.00
2023-03-05T12:21:42.350Z,97719.00
2023-03-05T12:24:38.342Z,97718.00
2023-03-05T12:27:15.767Z,97707.00
2023-03-05T12:29:46.405Z,97711.00
2023-03-05T12:33:00.767Z,97702.00
2023-03-05T12:35:37.388Z,97697.00
2023-03-05T12:38:29.246Z,97699.00
2023-03-05T12:41:34.357Z,97690.00
2023-03-05T12:44:19.395Z,97686.00
2023-03-05T12:47:07.438Z,97678.00
2023-03-05T12:49:39.775Z,97681.00
2023-03-05T12:52:18.535Z,97675.00
2023-03-05T12:55:02.013Z,97681.00
2023-03-05T12:57:31.381Z,97673.00
2023-03-05T13:00:06.147Z,97674.00
2023-03-05T13:02:37.749Z,97672.00
2023-03-05T13:05:15.724Z,97675.00
2023-03-05T13:07:43.392Z,97674.00
2023-03-05T13:10:23.858Z,97675.00
2023-03-05T13:12:53.580Z,97669.00
2023-03-05T13:15:24.175Z,97674.00
2023-03-05T13:17:56.523Z,97673.00
2023-03-05T13:20:37.678Z,97670.00
2023-03-05T13:23:22.048Z,97668.00
2023-03-05T13:26:01.854Z,97659.00
2023-03-05T13:28:30.580Z,97664.00
2023-03-05T13:31:02.275Z,97663.00
2023-03-05T13:33:32.528Z,97657.00
2023-03-05T13:36:01.015Z,97659.00
2023-03-05T13:38:33.499Z,97659.00
2023-03-05T13:41:20.041Z,97657.00
2023-03-05T13:43:49.764Z,97652.00
2023-03-05T13:46:29.920Z,97649.00
2023-03-05T13:48:58.111Z,97652.00
2023-03-05T13:51:42.583Z,97646.00
2023-03-05T13:54:14.610Z,97636.00
2023-03-05T13:56:54.186Z,97631.00
2023-03-05T13:59:24.237Z,97624.00
2023-03-05T14:01:53.920Z,97633.00
2023-03-05T14:04:24.525Z,97628.00
2023-03-05T14:06:56.786Z,97624.00
2023-03-05T14:09:26.162Z,97623.00
2023-03-05T14:12:03.452Z,97622.00
2023-03-05T14:14:35.335Z,97620.00
2023-03-05T14:17:23.567Z,97607.00
2023-03-05T14:19:52.116Z,97602.00
2023-03-05T14:22:32.210Z,97607.00
2023-03-05T14:24:59.823Z,97600.00
2023-03-05T14:27:37.068Z,97601.00
2023-03-05T14:30:06.300Z,97602.00
2023-03-05T14:32:37.421Z,97592.00
2023-03-05T14:35:07.113Z,97597.00
2023-03-05T14:37:38.440Z,97598.00
2023-03-05T14:40:07.851Z,97587.00
2023-03-05T14:42:39.067Z,97586.00
2023-03-05T14:45:15.537Z,97582.00
2023-03-05T14:47:44.854Z,97579.00
2023-03-05T14:50:17.235Z,97576.00
2023-03-05T14:52:45.649Z,97575.00
2023-03-05T14:55:16.513Z,97570.00
2023-03-05T14:57:44.618Z,97572.00
2023-03-05T15:00:17.849Z,97572.00
2023-03-05T15:02:46.900Z,97570.00
2023-03-05T15:05:14.902Z,97558.00
2023-03-05T15:07:42.944Z,97560.00
2023-03-05T15:10:12.897Z,97559.00
2023-03-05T15:12:40.543Z,97551.00
2023-03-05T15:15:09.567Z,97547.00
2023-03-05T15:17:42.434Z,97551.00
2023-03-05T15:20:16.508Z,97549.00
2023-03-05T15:22:44.195Z,97546.00
2023-03-05T15:25:12.829Z,97539.00
2023-03-05T15:27:40.938Z,97538.00
2023-03-05T15:30:10.486Z,97536.00
2023-03-05T15:32:38.284Z,97533.00
2023-03-05T15:35:06.299Z,97528.00
2023-03-05T15:37:35.250Z,97526.00
2023-03-05T15:40:02.950Z,97522.00
2023-03-05T15:42:30.558Z,97520.00
2023-03-05T15:44:58.187Z,97519.00
2023-03-05T15:47:25.841Z,97503.00
2023-03-05T15:49:53.445Z,97499.00
2023-03-05T15:52:21.088Z,97501.00
2023-03-05T15:54:50.128Z,97503.00
2023-03-05T15:57:21.703Z,97502.00
2023-03-05T15:59:49.513Z,97489.00
2023-03-05T16:02:17.223Z,97494.00
2023-03-05T16:04:44.957Z,97501.00
2023-03-05T16:07:14.909Z,97495.00
2023-03-05T16:09:45.110Z,97495.00
2023-03-05T16:12:19.480Z,97490.00
2023-03-05T16:14:48.179Z,97491.00
2023-03-05T16:17:18.596Z,97483.00
2023-03-05T16:19:50.048Z,97483.00
2023-03-05T16:22:17.662Z,97476.00
2023-03-05T16:24:45.277Z,97482.00
2023-03-05T16:27:14.324Z,97483.00
2023-03-05T16:29:42.110Z,97474.00
2023-03-05T16:32:09.833Z,97480.00
2023-03-05T16:34:37.578Z,97465.00
2023-03-05T16:37:06.867Z,97467.00
2023-03-05T16:39:34.537Z,97464.00
2023-03-05T16:42:02.204Z,97457.00
2023-03-05T16:44:31.202Z,97458.00
2023-03-05T16:46:59.216Z,97456.00
2023-03-05T16:49:26.885Z,97466.00
2023-03-05T16:51:54.568Z,97466.00
2023-03-05T16:54:23.004Z,97460.00
2023-03-05T16:56:50.650Z,97468.00
2023-03-05T16:59:18.539Z,97465.00
2023-03-05T17:01:47.512Z,97458.00
2023-03-05T17:04:15.247Z,97452.00
2023-03-05T17:06:46.316Z,97449.00
2023-03-05T17:09:14.142Z,97457.00
2023-03-05T17:11:41.808Z,97455.00
2023-03-05T17:14:09.511Z,97456.00
2023-03-05T17:16:37.150Z,97449.00
2023-03-05T17:19:06.491Z,97449.00
2023-03-05T17:21:34.114Z,97448.00
2023-03-05T17:24:01.778Z,97448.00
2023-03-05T17:26:32.589Z,97451.00
2023-03-05T17:29:00.416Z,97446.00
2023-03-05T17:31:28.074Z,97440.00
2023-03-05T17:33:56.279Z,97451.00
2023-03-05T17:36:25.742Z,97443.00
2023-03-05T17:38:54.303Z,97444.00
2023-03-05T17:41:22.451Z,97443.00
2023-03-05T17:43:51.639Z,97445.00
2023-03-05T17:46:19.341Z,97437.00
2023-03-05T17:48:47.067Z,97433.00
2023-03-05T17:51:16.653Z,97442.00
2023-03-05T17:53:46.365Z,97438.00
2023-03-05T17:56:16.951Z,97442.00
2023-03-05T17:58:44.644Z,97438.00
2023-03-05T18:01:12.318Z,97448.00
2023-03-05T18:03:40.468Z,97447.00
2023-03-05T18:06:08.400Z,97442.00
2023-03-05T18:08:36.031Z,97444.00
2023-03-05T18:11:05.364Z,97442.00
2023-03-05T18:13:32.995Z,97434.00
2023-03-05T18:16:01.173Z,97434.00
2023-03-05T18:18:28.880Z,97437.00
2023-03-05T18:20:57.064Z,97440.00
2023-03-05T18:23:24.726Z,97436.00
2023-03-05T18:25:52.426Z,97437.00
2023-03-05T18:28:21.752Z,97432.00
2023-03-05T18:30:49.480Z,97429.00
2023-03-05T18:33:20.104Z,97428.00
2023-03-05T18:35:49.609Z,97430.00
2023-03-05T18:38:17.344Z,97432.00
2023-03-05T18:40:46.385Z,97426.00
2023-03-05T18:43:14.054Z,97423.00
2023-03-05T18:45:43.222Z,97416.00
2023-03-05T18:48:10.834Z,97420.00
2023-03-05T18:50:38.454Z,97417.00
2023-03-05T18:53:06.064Z,97417.00
2023-03-05T18:55:33.963Z,97417.00
2023-03-05T18:58:02.978Z,97417.00
2023-03-05T19:00:32.294Z,97413.00
2023-03-05T19:03:03.402Z,97403.00
2023-03-05T19:05:32.182Z,97418.00
2023-03-05T19:07:59.967Z,97413.00
2023-03-05T19:10:28.155Z,97416.00
2023-03-05T19:13:05.584Z,97412.00
2023-03-05T19:15:33.516Z,97412.00
2023-03-05T19:18:02.608Z,97409.00
2023-03-05T19:20:30.249Z,97415.00
2023-03-05T19:22:57.885Z,97404.00
2023-03-05T19:25:25.543Z,97408.00
2023-03-05T19:27:53.196Z,97395.00
2023-03-05T19:30:25.398Z,97395.00
2023-03-05T19:32:59.545Z,97394.00
2023-03-05T19:35:28.851Z,97402.00
2023-03-05T19:37:56.476Z,97392.00
2023-03-05T19:40:24.156Z,97400.00
2023-03-05T19:42:51.777Z,97407.00
2023-03-05T19:45:19.654Z,97405.00
2023-03-05T19:47:47.841Z,97397.00
2023-03-05T19:50:16.600Z,97391.00
2023-03-05T19:52:45.691Z,97391.00
2023-03-05T19:55:13.359Z,97390.00
2023-03-05T19:57:40.992Z,97391.00
2023-03-05T20:00:10.129Z,97389.00
2023-03-05T20:02:38.103Z,97386.00
2023-03-05T20:05:06.836Z,97380.00
2023-03-05T20:07:34.469Z,97386.00
2023-03-05T20:10:03.454Z,97384.00
2023-03-05T20:12:31.330Z,97386.00
2023-03-05T20:14:59.144Z,97379.00
2023-03-05T20:17:27.351Z,97381.00
2023-03-05T20:19:58.901Z,97379.00
2023-03-05T20:22:27.210Z,97379.00
2023-03-05T20:24:54.918Z,97379.00
2023-03-05T20:27:23.911Z,97379.00
2023-03-05T20:29:51.903Z,97383.00
2023-03-05T20:32:19.630Z,97373.00
2023-03-05T20:34:50.963Z,97372.00
2023-03-05T20:37:19.007Z,97372.00
2023-03-05T20:39:46.609Z,97372.00
2023-03-05T20:42:14.242Z,97370.00
2023-03-05T20:44:43.210Z,97368.00
2023-03-05T20:47:26.065Z,97357.00
2023-03-05T20:49:55.508Z,97358.00
2023-03-05T20:52:23.434Z,97356.00
2023-03-05T20:54:51.170Z,97356.00
2023-03-05T20:57:18.863Z,97352.00
2023-03-05T20:59:47.820Z,97359.00
2023-03-05T21:02:15.805Z,97352.00
2023-03-05T21:04:43.448Z,97344.00
2023-03-05T21:07:11.070Z,97356.00
2023-03-05T21:09:38.795Z,97344.00
2023-03-05T21:12:08.150Z,97341.00
2023-03-05T21:14:37.892Z,97346.00
2023-03-05T21:17:07.060Z,97341.00
2023-03-05T21:19:35.245Z,97338.00
2023-03-05T21:22:02.951Z,97341.00
2023-03-05T21:24:39.819Z,97337.00
2023-03-05T21:27:08.052Z,97332.00
2023-03-05T21:29:35.670Z,97328.00
2023-03-05T21:32:03.542Z,97331.00
2023-03-05T21:34:32.625Z,97324.00
2023-03-05T21:37:00.247Z,97328.00
2023-03-05T21:39:27.925Z,97323.00
2023-03-05T21:41:55.657Z,97317.00
2023-03-05T21:44:23.463Z,97311.00
2023-03-05T21:46:51.470Z,97313.00
2023-03-05T21:49:19.109Z,97309.00
2023-03-05T21:52:01.035Z,97310.00
2023-03-05T21:54:29.113Z,97308.00
2023-03-05T21:56:56.911Z,97306.00
2023-03-05T21:59:24.814Z,97301.00
2023-03-05T22:01:52.702Z,97301.00
2023-03-05T22:04:20.324Z,97293.00
2023-03-05T22:06:49.762Z,97291.00
2023-03-05T22:09:17.379Z,97294.00
2023-03-05T22:11:45.937Z,97291.00
2023-03-05T22:14:14.377Z,97287.00
2023-03-05T22:16:43.748Z,97284.00
2023-03-05T22:19:11.801Z,97277.00
2023-03-05T22:21:40.014Z,97276.00
2023-03-05T22:24:09.911Z,97272.00
2023-03-05T22:26:39.824Z,97274.00
2023-03-05T22:29:11.555Z,97276.00
2023-03-05T22:31:40.699Z,97271.00
2023-03-05T22:34:08.398Z,97264.00
2023-03-05T22:36:36.013Z,97265.00
2023-03-05T22:39:05.168Z,97256.00
2023-03-05T22:41:34.247Z,97262.00
2023-03-05T22:44:02.073Z,97253.00
2023-03-05T22:46:29.699Z,97256.00
2023-03-05T22:48:57.537Z,97248.00
2023-03-05T22:51:25.748Z,97240.00
2023-03-05T22:53:53.362Z,97245.00
2023-03-05T22:56:22.024Z,97257.00
2023-03-05T22:58:51.011Z,97249.00
2023-03-05T23:01:21.086Z,97240.00
2023-03-05T23:03:53.225Z,97240.00
2023-03-05T23:06:21.429Z,97238.00
2023-03-05T23:08:49.071Z,97235.00
2023-03-05T23:11:16.878Z,97234.00
2023-03-05T23:13:44.634Z,97231.00
2023-03-05T23:16:13.628Z,97221.00
2023-03-05T23:18:41.266Z,97226.00
2023-03-05T23:21:08.914Z,97221.00
2023-03-05T23:23:36.603Z,97219.00
2023-03-05T23:26:04.250Z,97225.00
2023-03-05T23:28:31.887Z,97217.00
2023-03-05T23:30:59.570Z,97221.00
2023-03-05T23:33:28.608Z,97210.00
2023-03-05T23:35:57.923Z,97202.00
2023-03-05T23:38:26.785Z,97204.00
2023-03-05T23:40:56.209Z,97198.00
2023-03-05T23:43:25.829Z,97193.00
2023-03-05T23:45:55.026Z,97196.00
2023-03-05T23:48:23.691Z,97199.00
2023-03-05T23:50:52.752Z,97201.00
2023-03-05T23:53:22.263Z,97195.00
2023-03-05T23:55:50.718Z,97186.00
2023-03-05T23:58:20.290Z,97194.00
